sensor_id;sensor_type;location;lat;lon;timestamp;P1;durP1;ratioP1;P2;durP2;ratioP2
45049;SDS011;61798;48.048;-1.928;2024-03-02T07:03:56;5.10;;;1.00;;
45049;SDS011;61798;48.048;-1.928;2024-03-02T07:07:12;3.85;;;0.68;;
45049;SDS011;61798;48.048;-1.928;2024-03-02T07:09:31;1.23;;;0.50;;
45049;SDS011;61798;48.048;-1.928;2024-03-02T07:11:44;6.05;;;0.68;;
45049;SDS011;61798;48.048;-1.928;2024-03-02T07:14:09;9.38;;;0.82;;
45049;SDS011;61798;48.048;-1.928;2024-03-02T07:16:22;4.13;;;0.80;;
45049;SDS011;61798;48.048;-1.928;2024-03-02T07:18:41;1.77;;;0.70;;
45049;SDS011;61798;48.048;-1.928;2024-03-02T07:21:00;5.68;;;1.00;;
45049;SDS011;61798;48.048;-1.928;2024-03-02T07:23:12;5.13;;;1.55;;
45049;SDS011;61798;48.048;-1.928;2024-03-02T07:25:22;1.45;;;0.70;;
45049;SDS011;61798;48.048;-1.928;2024-03-02T07:27:31;5.75;;;1.20;;
45049;SDS011;61798;48.048;-1.928;2024-03-02T07:29:42;6.55;;;1.30;;
45049;SDS011;61798;48.048;-1.928;2024-03-02T07:31:54;6.82;;;1.08;;
45049;SDS011;61798;48.048;-1.928;2024-03-02T07:34:07;10.05;;;1.20;;
45049;SDS011;61798;48.048;-1.928;2024-03-02T07:36:15;5.68;;;1.30;;
45049;SDS011;61798;48.048;-1.928;2024-03-02T07:38:49;2.47;;;1.02;;
45049;SDS011;61798;48.048;-1.928;2024-03-02T07:41:39;3.97;;;1.33;;
45049;SDS011;61798;48.048;-1.928;2024-03-02T07:43:59;5.53;;;1.38;;
45049;SDS011;61798;48.048;-1.928;2024-03-02T07:46:15;8.75;;;1.27;;
45049;SDS011;61798;48.048;-1.928;2024-03-02T07:48:29;3.20;;;1.00;;
45049;SDS011;61798;48.048;-1.928;2024-03-02T07:50:49;6.80;;;1.60;;
45049;SDS011;61798;48.048;-1.928;2024-03-02T07:52:59;3.40;;;1.20;;
45049;SDS011;61798;48.048;-1.928;2024-03-02T07:57:55;7.20;;;1.20;;
45049;SDS011;61798;48.048;-1.928;2024-03-02T08:00:32;7.00;;;1.42;;
45049;SDS011;61798;48.048;-1.928;2024-03-02T08:03:09;11.20;;;1.73;;
45049;SDS011;61798;48.048;-1.928;2024-03-02T08:05:25;4.30;;;1.10;;
45049;SDS011;61798;48.048;-1.928;2024-03-02T08:07:37;3.22;;;1.08;;
45049;SDS011;61798;48.048;-1.928;2024-03-02T08:09:49;4.35;;;1.48;;
45049;SDS011;61798;48.048;-1.928;2024-03-02T08:12:25;7.32;;;1.88;;
45049;SDS011;61798;48.048;-1.928;2024-03-02T08:14:37;7.75;;;2.30;;
45049;SDS011;61798;48.048;-1.928;2024-03-02T08:17:14;12.93;;;2.55;;
45049;SDS011;61798;48.048;-1.928;2024-03-02T08:20:02;7.60;;;1.80;;
45049;SDS011;61798;48.048;-1.928;2024-03-02T08:22:22;10.38;;;1.50;;
45049;SDS011;61798;48.048;-1.928;2024-03-02T08:24:36;9.70;;;1.42;;
45049;SDS011;61798;48.048;-1.928;2024-03-02T08:26:55;2.42;;;1.33;;
45049;SDS011;61798;48.048;-1.928;2024-03-02T08:29:15;5.15;;;1.23;;
45049;SDS011;61798;48.048;-1.928;2024-03-02T08:31:30;11.18;;;1.65;;
45049;SDS011;61798;48.048;-1.928;2024-03-02T08:33:49;8.02;;;1.50;;
45049;SDS011;61798;48.048;-1.928;2024-03-02T08:36:01;5.22;;;1.20;;
45049;SDS011;61798;48.048;-1.928;2024-03-02T08:38:31;5.82;;;1.83;;
45049;SDS011;61798;48.048;-1.928;2024-03-02T08:41:50;7.85;;;1.30;;
45049;SDS011;61798;48.048;-1.928;2024-03-02T08:44:04;7.47;;;1.40;;
45049;SDS011;61798;48.048;-1.928;2024-03-02T08:46:31;5.78;;;1.52;;
45049;SDS011;61798;48.048;-1.928;2024-03-02T08:49:19;5.70;;;1.38;;
45049;SDS011;61798;48.048;-1.928;2024-03-02T08:51:44;3.33;;;1.45;;
45049;SDS011;61798;48.048;-1.928;2024-03-02T08:54:36;4.63;;;1.67;;
45049;SDS011;61798;48.048;-1.928;2024-03-02T08:57:34;2.85;;;1.25;;
45049;SDS011;61798;48.048;-1.928;2024-03-02T09:00:49;3.97;;;1.30;;
45049;SDS011;61798;48.048;-1.928;2024-03-02T09:03:01;4.88;;;1.20;;
45049;SDS011;61798;48.048;-1.928;2024-03-02T09:05:53;6.53;;;1.10;;
45049;SDS011;61798;48.048;-1.928;2024-03-02T09:14:24;2.60;;;0.88;;
45049;SDS011;61798;48.048;-1.928;2024-03-02T09:16:43;3.58;;;1.00;;
45049;SDS011;61798;48.048;-1.928;2024-03-02T09:18:53;5.65;;;0.90;;
45049;SDS011;61798;48.048;-1.928;2024-03-02T09:21:27;4.45;;;0.93;;
45049;SDS011;61798;48.048;-1.928;2024-03-02T09:23:48;3.90;;;1.30;;
45049;SDS011;61798;48.048;-1.928;2024-03-02T09:25:57;6.63;;;1.50;;
45049;SDS011;61798;48.048;-1.928;2024-03-02T09:28:07;7.95;;;1.27;;
45049;SDS011;61798;48.048;-1.928;2024-03-02T09:30:30;2.17;;;0.88;;
45049;SDS011;61798;48.048;-1.928;2024-03-02T09:33:02;5.43;;;0.98;;
45049;SDS011;61798;48.048;-1.928;2024-03-02T09:35:09;5.70;;;1.08;;
45049;SDS011;61798;48.048;-1.928;2024-03-02T09:37:21;7.25;;;1.10;;
45049;SDS011;61798;48.048;-1.928;2024-03-02T09:40:17;2.28;;;1.00;;
45049;SDS011;61798;48.048;-1.928;2024-03-02T09:42:42;2.80;;;1.02;;
45049;SDS011;61798;48.048;-1.928;2024-03-02T09:46:08;4.13;;;0.90;;
45049;SDS011;61798;48.048;-1.928;2024-03-02T09:48:21;2.78;;;0.80;;
45049;SDS011;61798;48.048;-1.928;2024-03-02T09:50:30;6.55;;;2.08;;
45049;SDS011;61798;48.048;-1.928;2024-03-02T09:52:38;4.30;;;0.80;;
45049;SDS011;61798;48.048;-1.928;2024-03-02T09:54:58;3.20;;;0.95;;
45049;SDS011;61798;48.048;-1.928;2024-03-02T09:57:15;6.72;;;1.00;;
45049;SDS011;61798;48.048;-1.928;2024-03-02T10:00:05;7.35;;;1.05;;
45049;SDS011;61798;48.048;-1.928;2024-03-02T10:02:25;5.50;;;0.93;;
45049;SDS011;61798;48.048;-1.928;2024-03-02T10:04:34;2.80;;;0.90;;
45049;SDS011;61798;48.048;-1.928;2024-03-02T10:09:29;8.52;;;1.00;;
45049;SDS011;61798;48.048;-1.928;2024-03-02T10:11:37;2.63;;;0.80;;
45049;SDS011;61798;48.048;-1.928;2024-03-02T10:14:31;1.23;;;0.77;;
45049;SDS011;61798;48.048;-1.928;2024-03-02T10:17:06;5.35;;;0.98;;
45049;SDS011;61798;48.048;-1.928;2024-03-02T10:22:53;2.20;;;0.95;;
45049;SDS011;61798;48.048;-1.928;2024-03-02T10:25:52;2.05;;;0.95;;
45049;SDS011;61798;48.048;-1.928;2024-03-02T10:28:26;5.15;;;1.17;;
45049;SDS011;61798;48.048;-1.928;2024-03-02T10:30:37;1.30;;;0.77;;
45049;SDS011;61798;48.048;-1.928;2024-03-02T10:33:22;5.82;;;0.98;;
45049;SDS011;61798;48.048;-1.928;2024-03-02T10:35:43;2.25;;;1.20;;
45049;SDS011;61798;48.048;-1.928;2024-03-02T10:37:56;4.50;;;1.15;;
45049;SDS011;61798;48.048;-1.928;2024-03-02T10:40:26;3.25;;;0.70;;
45049;SDS011;61798;48.048;-1.928;2024-03-02T10:43:07;7.57;;;1.20;;
45049;SDS011;61798;48.048;-1.928;2024-03-02T10:45:34;11.65;;;1.20;;
45049;SDS011;61798;48.048;-1.928;2024-03-02T10:48:01;7.15;;;1.63;;
45049;SDS011;61798;48.048;-1.928;2024-03-02T10:52:40;3.03;;;1.10;;
45049;SDS011;61798;48.048;-1.928;2024-03-02T10:56:16;4.85;;;1.20;;
45049;SDS011;61798;48.048;-1.928;2024-03-02T11:00:00;5.15;;;1.05;;
45049;SDS011;61798;48.048;-1.928;2024-03-02T11:02:33;3.33;;;0.88;;
45049;SDS011;61798;48.048;-1.928;2024-03-02T11:05:01;2.95;;;1.00;;
45049;SDS011;61798;48.048;-1.928;2024-03-02T11:07:39;7.90;;;1.45;;
45049;SDS011;61798;48.048;-1.928;2024-03-02T11:13:33;6.45;;;1.23;;
45049;SDS011;61798;48.048;-1.928;2024-03-02T11:16:59;2.72;;;1.33;;
45049;SDS011;61798;48.048;-1.928;2024-03-02T11:19:10;4.47;;;1.13;;
45049;SDS011;61798;48.048;-1.928;2024-03-02T11:27:01;3.25;;;0.90;;
45049;SDS011;61798;48.048;-1.928;2024-03-02T11:29:42;2.45;;;0.80;;
45049;SDS011;61798;48.048;-1.928;2024-03-02T11:32:05;2.63;;;1.10;;
45049;SDS011;61798;48.048;-1.928;2024-03-02T11:34:30;4.32;;;1.17;;
45049;SDS011;61798;48.048;-1.928;2024-03-02T11:42:29;2.50;;;1.10;;
45049;SDS011;61798;48.048;-1.928;2024-03-02T11:45:08;9.70;;;1.52;;
45049;SDS011;61798;48.048;-1.928;2024-03-02T11:47:33;6.45;;;0.80;;
45049;SDS011;61798;48.048;-1.928;2024-03-02T12:01:38;4.22;;;0.95;;
45049;SDS011;61798;48.048;-1.928;2024-03-02T12:41:38;6.63;;;1.17;;
45049;SDS011;61798;48.048;-1.928;2024-03-02T12:57:44;5.00;;;0.90;;
45049;SDS011;61798;48.048;-1.928;2024-03-02T13:15:32;3.75;;;1.08;;
45049;SDS011;61798;48.048;-1.928;2024-03-02T13:17:47;2.33;;;0.70;;
45049;SDS011;61798;48.048;-1.928;2024-03-02T13:20:45;3.67;;;0.80;;
45049;SDS011;61798;48.048;-1.928;2024-03-02T13:23:22;1.23;;;0.68;;
45049;SDS011;61798;48.048;-1.928;2024-03-02T13:51:57;1.95;;;0.80;;
45049;SDS011;61798;48.048;-1.928;2024-03-02T14:00:22;4.55;;;0.65;;
45049;SDS011;61798;48.048;-1.928;2024-03-02T14:06:28;2.53;;;0.93;;
45049;SDS011;61798;48.048;-1.928;2024-03-02T14:18:10;1.85;;;0.57;;
45049;SDS011;61798;48.048;-1.928;2024-03-02T14:23:49;1.95;;;0.70;;
45049;SDS011;61798;48.048;-1.928;2024-03-02T14:29:44;2.30;;;0.50;;
45049;SDS011;61798;48.048;-1.928;2024-03-02T14:35:06;1.35;;;0.77;;
45049;SDS011;61798;48.048;-1.928;2024-03-02T14:37:16;2.15;;;0.63;;
45049;SDS011;61798;48.048;-1.928;2024-03-02T14:39:23;2.08;;;0.60;;
45049;SDS011;61798;48.048;-1.928;2024-03-02T14:41:29;2.60;;;1.02;;
45049;SDS011;61798;48.048;-1.928;2024-03-02T14:48:34;1.52;;;0.52;;
45049;SDS011;61798;48.048;-1.928;2024-03-02T14:50:47;4.60;;;0.73;;
45049;SDS011;61798;48.048;-1.928;2024-03-02T14:52:53;1.13;;;0.95;;
45049;SDS011;61798;48.048;-1.928;2024-03-02T14:55:06;3.28;;;0.95;;
45049;SDS011;61798;48.048;-1.928;2024-03-02T14:57:15;2.05;;;0.75;;
45049;SDS011;61798;48.048;-1.928;2024-03-02T14:59:21;1.48;;;0.60;;
45049;SDS011;61798;48.048;-1.928;2024-03-02T15:01:34;1.15;;;0.70;;
45049;SDS011;61798;48.048;-1.928;2024-03-02T15:03:41;4.07;;;0.90;;
45049;SDS011;61798;48.048;-1.928;2024-03-02T15:05:48;1.23;;;1.10;;
45049;SDS011;61798;48.048;-1.928;2024-03-02T15:07:57;0.70;;;0.40;;
45049;SDS011;61798;48.048;-1.928;2024-03-02T15:10:14;2.40;;;0.70;;
45049;SDS011;61798;48.048;-1.928;2024-03-02T15:12:44;1.35;;;0.70;;
45049;SDS011;61798;48.048;-1.928;2024-03-02T15:16:25;2.97;;;1.13;;
45049;SDS011;61798;48.048;-1.928;2024-03-02T15:23:50;1.38;;;0.38;;
45049;SDS011;61798;48.048;-1.928;2024-03-02T15:27:21;0.60;;;0.50;;
45049;SDS011;61798;48.048;-1.928;2024-03-02T15:32:39;2.30;;;0.60;;
45049;SDS011;61798;48.048;-1.928;2024-03-02T15:35:31;0.80;;;0.57;;
45049;SDS011;61798;48.048;-1.928;2024-03-02T15:38:27;1.42;;;0.68;;
45049;SDS011;61798;48.048;-1.928;2024-03-02T15:47:15;0.57;;;0.50;;
45049;SDS011;61798;48.048;-1.928;2024-03-02T15:53:18;3.40;;;1.90;;
45049;SDS011;61798;48.048;-1.928;2024-03-02T16:02:24;2.83;;;0.93;;
45049;SDS011;61798;48.048;-1.928;2024-03-02T16:05:23;0.73;;;0.65;;
45049;SDS011;61798;48.048;-1.928;2024-03-02T16:14:58;2.15;;;0.98;;
45049;SDS011;61798;48.048;-1.928;2024-03-02T16:21:33;1.38;;;0.55;;
45049;SDS011;61798;48.048;-1.928;2024-03-02T16:24:29;5.50;;;1.05;;
45049;SDS011;61798;48.048;-1.928;2024-03-02T16:26:38;1.70;;;0.75;;
45049;SDS011;61798;48.048;-1.928;2024-03-02T16:28:56;0.95;;;0.55;;
45049;SDS011;61798;48.048;-1.928;2024-03-02T16:31:02;3.38;;;0.60;;
45049;SDS011;61798;48.048;-1.928;2024-03-02T16:33:08;1.15;;;0.65;;
45049;SDS011;61798;48.048;-1.928;2024-03-02T16:40:24;2.47;;;0.93;;
45049;SDS011;61798;48.048;-1.928;2024-03-02T16:43:32;1.98;;;0.90;;
45049;SDS011;61798;48.048;-1.928;2024-03-02T16:45:38;3.38;;;1.13;;
45049;SDS011;61798;48.048;-1.928;2024-03-02T16:47:47;1.73;;;0.90;;
45049;SDS011;61798;48.048;-1.928;2024-03-02T16:49:53;1.88;;;0.95;;
45049;SDS011;61798;48.048;-1.928;2024-03-02T16:51:59;3.47;;;0.82;;
45049;SDS011;61798;48.048;-1.928;2024-03-02T16:54:05;1.30;;;0.90;;
45049;SDS011;61798;48.048;-1.928;2024-03-02T16:56:11;6.85;;;1.45;;
45049;SDS011;61798;48.048;-1.928;2024-03-02T16:58:17;3.38;;;1.20;;
45049;SDS011;61798;48.048;-1.928;2024-03-02T17:00:24;2.20;;;0.95;;
45049;SDS011;61798;48.048;-1.928;2024-03-02T17:02:30;1.90;;;0.98;;
45049;SDS011;61798;48.048;-1.928;2024-03-02T17:04:36;2.50;;;0.93;;
45049;SDS011;61798;48.048;-1.928;2024-03-02T17:06:42;3.10;;;0.95;;
45049;SDS011;61798;48.048;-1.928;2024-03-02T17:08:48;4.50;;;1.67;;
45049;SDS011;61798;48.048;-1.928;2024-03-02T17:10:55;5.72;;;1.88;;
45049;SDS011;61798;48.048;-1.928;2024-03-02T17:13:01;11.88;;;4.03;;
45049;SDS011;61798;48.048;-1.928;2024-03-02T17:15:07;7.85;;;2.92;;
45049;SDS011;61798;48.048;-1.928;2024-03-02T17:17:13;5.03;;;2.17;;
45049;SDS011;61798;48.048;-1.928;2024-03-02T17:19:19;5.35;;;2.65;;
45049;SDS011;61798;48.048;-1.928;2024-03-02T17:21:57;6.13;;;2.38;;
45049;SDS011;61798;48.048;-1.928;2024-03-02T17:24:04;3.92;;;1.98;;
45049;SDS011;61798;48.048;-1.928;2024-03-02T17:26:10;3.85;;;2.00;;
45049;SDS011;61798;48.048;-1.928;2024-03-02T17:32:16;4.88;;;1.40;;
45049;SDS011;61798;48.048;-1.928;2024-03-02T17:40:03;2.70;;;1.10;;
45049;SDS011;61798;48.048;-1.928;2024-03-02T17:44:13;5.05;;;1.83;;
45049;SDS011;61798;48.048;-1.928;2024-03-02T17:47:13;5.85;;;1.70;;
45049;SDS011;61798;48.048;-1.928;2024-03-02T17:50:58;3.72;;;1.67;;
45049;SDS011;61798;48.048;-1.928;2024-03-02T18:07:15;5.07;;;1.33;;
45049;SDS011;61798;48.048;-1.928;2024-03-02T18:10:03;1.63;;;1.00;;
45049;SDS011;61798;48.048;-1.928;2024-03-02T18:12:48;1.98;;;1.02;;
45049;SDS011;61798;48.048;-1.928;2024-03-02T18:15:06;5.82;;;0.90;;
45049;SDS011;61798;48.048;-1.928;2024-03-02T18:17:49;4.13;;;0.80;;
45049;SDS011;61798;48.048;-1.928;2024-03-02T18:20:33;1.95;;;0.90;;
45049;SDS011;61798;48.048;-1.928;2024-03-02T18:23:06;1.48;;;0.90;;
45049;SDS011;61798;48.048;-1.928;2024-03-02T18:25:22;3.08;;;0.85;;
45049;SDS011;61798;48.048;-1.928;2024-03-02T18:27:35;2.28;;;0.88;;
45049;SDS011;61798;48.048;-1.928;2024-03-02T18:29:54;7.13;;;0.93;;
45049;SDS011;61798;48.048;-1.928;2024-03-02T18:32:18;2.03;;;0.82;;
45049;SDS011;61798;48.048;-1.928;2024-03-02T18:34:26;2.30;;;1.10;;
45049;SDS011;61798;48.048;-1.928;2024-03-02T18:36:35;2.30;;;1.00;;
45049;SDS011;61798;48.048;-1.928;2024-03-02T18:38:47;1.42;;;0.70;;
45049;SDS011;61798;48.048;-1.928;2024-03-02T18:40:58;3.45;;;1.50;;
45049;SDS011;61798;48.048;-1.928;2024-03-02T18:43:14;2.22;;;0.80;;
45049;SDS011;61798;48.048;-1.928;2024-03-02T18:45:22;2.08;;;1.00;;
45049;SDS011;61798;48.048;-1.928;2024-03-02T18:47:31;2.88;;;1.08;;
45049;SDS011;61798;48.048;-1.928;2024-03-02T18:49:46;4.65;;;0.95;;
45049;SDS011;61798;48.048;-1.928;2024-03-02T18:52:02;4.03;;;1.00;;
45049;SDS011;61798;48.048;-1.928;2024-03-02T18:54:18;3.42;;;0.90;;
45049;SDS011;61798;48.048;-1.928;2024-03-02T18:56:33;2.60;;;1.35;;
45049;SDS011;61798;48.048;-1.928;2024-03-02T18:58:59;4.03;;;1.50;;
45049;SDS011;61798;48.048;-1.928;2024-03-02T19:01:20;7.87;;;1.63;;
45049;SDS011;61798;48.048;-1.928;2024-03-02T19:03:34;12.95;;;1.90;;
45049;SDS011;61798;48.048;-1.928;2024-03-02T19:06:21;2.83;;;1.60;;
45049;SDS011;61798;48.048;-1.928;2024-03-02T19:08:35;2.60;;;1.15;;
45049;SDS011;61798;48.048;-1.928;2024-03-02T19:10:47;4.18;;;1.17;;
45049;SDS011;61798;48.048;-1.928;2024-03-02T19:13:01;3.38;;;1.33;;
45049;SDS011;61798;48.048;-1.928;2024-03-02T19:15:24;2.10;;;1.20;;
45049;SDS011;61798;48.048;-1.928;2024-03-02T19:18:05;2.42;;;1.38;;
45049;SDS011;61798;48.048;-1.928;2024-03-02T19:20:15;3.85;;;1.48;;
45049;SDS011;61798;48.048;-1.928;2024-03-02T19:22:28;3.50;;;1.20;;
45049;SDS011;61798;48.048;-1.928;2024-03-02T19:24:42;3.35;;;0.98;;
45049;SDS011;61798;48.048;-1.928;2024-03-02T19:27:09;1.60;;;0.80;;
45049;SDS011;61798;48.048;-1.928;2024-03-02T19:29:40;0.68;;;0.65;;
45049;SDS011;61798;48.048;-1.928;2024-03-02T19:31:58;2.53;;;1.13;;
45049;SDS011;61798;48.048;-1.928;2024-03-02T19:34:14;2.28;;;0.60;;
45049;SDS011;61798;48.048;-1.928;2024-03-02T19:36:50;3.13;;;0.77;;
45049;SDS011;61798;48.048;-1.928;2024-03-02T19:39:14;0.60;;;0.60;;
45049;SDS011;61798;48.048;-1.928;2024-03-02T19:41:37;1.15;;;0.77;;
45049;SDS011;61798;48.048;-1.928;2024-03-02T19:44:17;2.58;;;1.58;;
45049;SDS011;61798;48.048;-1.928;2024-03-02T19:46:51;3.88;;;1.67;;
45049;SDS011;61798;48.048;-1.928;2024-03-02T19:49:40;8.43;;;3.35;;
45049;SDS011;61798;48.048;-1.928;2024-03-02T19:52:01;14.85;;;5.35;;
45049;SDS011;61798;48.048;-1.928;2024-03-02T19:54:15;10.35;;;3.88;;
45049;SDS011;61798;48.048;-1.928;2024-03-02T19:56:28;10.68;;;3.67;;
45049;SDS011;61798;48.048;-1.928;2024-03-02T19:58:47;9.35;;;3.67;;
45049;SDS011;61798;48.048;-1.928;2024-03-02T20:01:18;5.47;;;2.33;;
45049;SDS011;61798;48.048;-1.928;2024-03-02T20:03:27;2.13;;;1.30;;
45049;SDS011;61798;48.048;-1.928;2024-03-02T20:05:54;3.25;;;1.50;;
45049;SDS011;61798;48.048;-1.928;2024-03-02T20:08:07;2.00;;;0.90;;
45049;SDS011;61798;48.048;-1.928;2024-03-02T20:10:25;1.35;;;0.88;;
45049;SDS011;61798;48.048;-1.928;2024-03-02T20:12:37;2.53;;;1.30;;
45049;SDS011;61798;48.048;-1.928;2024-03-02T20:15:05;2.15;;;1.13;;
45049;SDS011;61798;48.048;-1.928;2024-03-02T20:17:26;4.13;;;1.27;;
45049;SDS011;61798;48.048;-1.928;2024-03-02T20:19:49;2.38;;;1.17;;
45049;SDS011;61798;48.048;-1.928;2024-03-02T20:22:15;2.35;;;0.93;;
45049;SDS011;61798;48.048;-1.928;2024-03-02T20:24:44;1.60;;;0.80;;
45049;SDS011;61798;48.048;-1.928;2024-03-02T20:27:12;1.80;;;0.90;;
45049;SDS011;61798;48.048;-1.928;2024-03-02T20:29:26;2.35;;;0.77;;
45049;SDS011;61798;48.048;-1.928;2024-03-02T20:31:39;1.20;;;0.73;;
45049;SDS011;61798;48.048;-1.928;2024-03-02T20:33:52;0.93;;;0.82;;
45049;SDS011;61798;48.048;-1.928;2024-03-02T20:36:15;1.20;;;0.80;;
45049;SDS011;61798;48.048;-1.928;2024-03-02T20:38:41;1.92;;;0.90;;
45049;SDS011;61798;48.048;-1.928;2024-03-02T20:40:51;1.67;;;0.80;;
45049;SDS011;61798;48.048;-1.928;2024-03-02T20:43:01;1.42;;;0.90;;
45049;SDS011;61798;48.048;-1.928;2024-03-02T20:45:13;1.02;;;0.93;;
45049;SDS011;61798;48.048;-1.928;2024-03-02T20:47:24;0.93;;;0.90;;
45049;SDS011;61798;48.048;-1.928;2024-03-02T20:49:32;0.95;;;0.68;;
45049;SDS011;61798;48.048;-1.928;2024-03-02T20:51:43;0.93;;;0.80;;
45049;SDS011;61798;48.048;-1.928;2024-03-02T20:53:57;3.47;;;0.98;;
45049;SDS011;61798;48.048;-1.928;2024-03-02T20:56:11;0.65;;;0.65;;
45049;SDS011;61798;48.048;-1.928;2024-03-02T20:58:19;0.80;;;0.73;;
45049;SDS011;61798;48.048;-1.928;2024-03-02T21:00:32;0.95;;;0.80;;
45049;SDS011;61798;48.048;-1.928;2024-03-02T21:02:46;0.60;;;0.60;;
45049;SDS011;61798;48.048;-1.928;2024-03-02T21:05:18;1.08;;;0.60;;
45049;SDS011;61798;48.048;-1.928;2024-03-02T21:07:31;0.77;;;0.77;;
45049;SDS011;61798;48.048;-1.928;2024-03-02T21:09:57;1.23;;;0.52;;
45049;SDS011;61798;48.048;-1.928;2024-03-02T21:12:18;0.50;;;0.50;;
45049;SDS011;61798;48.048;-1.928;2024-03-02T21:14:28;1.38;;;0.80;;
45049;SDS011;61798;48.048;-1.928;2024-03-02T21:16:39;1.35;;;0.63;;
45049;SDS011;61798;48.048;-1.928;2024-03-02T21:18:50;1.83;;;0.77;;
45049;SDS011;61798;48.048;-1.928;2024-03-02T21:21:07;0.95;;;0.68;;
45049;SDS011;61798;48.048;-1.928;2024-03-02T21:23:23;0.63;;;0.57;;
45049;SDS011;61798;48.048;-1.928;2024-03-02T21:25:38;1.63;;;1.00;;
45049;SDS011;61798;48.048;-1.928;2024-03-02T21:28:01;1.35;;;1.05;;
45049;SDS011;61798;48.048;-1.928;2024-03-02T21:30:31;3.47;;;1.13;;
45049;SDS011;61798;48.048;-1.928;2024-03-02T21:32:47;1.27;;;1.00;;
45049;SDS011;61798;48.048;-1.928;2024-03-02T21:35:02;2.85;;;1.13;;
45049;SDS011;61798;48.048;-1.928;2024-03-02T21:37:38;2.78;;;1.17;;
45049;SDS011;61798;48.048;-1.928;2024-03-02T21:40:15;2.83;;;1.05;;
45049;SDS011;61798;48.048;-1.928;2024-03-02T21:42:45;1.85;;;1.20;;
45049;SDS011;61798;48.048;-1.928;2024-03-02T21:45:25;3.17;;;1.10;;
45049;SDS011;61798;48.048;-1.928;2024-03-02T21:47:37;4.13;;;1.80;;
45049;SDS011;61798;48.048;-1.928;2024-03-02T21:49:52;31.60;;;9.88;;
45049;SDS011;61798;48.048;-1.928;2024-03-02T21:52:09;18.50;;;6.68;;
45049;SDS011;61798;48.048;-1.928;2024-03-02T21:54:43;15.48;;;4.30;;
45049;SDS011;61798;48.048;-1.928;2024-03-02T21:57:08;4.93;;;2.20;;
45049;SDS011;61798;48.048;-1.928;2024-03-02T21:59:35;5.05;;;2.25;;
45049;SDS011;61798;48.048;-1.928;2024-03-02T22:01:50;10.23;;;4.40;;
45049;SDS011;61798;48.048;-1.928;2024-03-02T22:04:07;12.82;;;5.15;;
45049;SDS011;61798;48.048;-1.928;2024-03-02T22:06:38;11.27;;;5.10;;
45049;SDS011;61798;48.048;-1.928;2024-03-02T22:09:03;7.32;;;5.32;;
45049;SDS011;61798;48.048;-1.928;2024-03-02T22:11:15;5.50;;;3.45;;
45049;SDS011;61798;48.048;-1.928;2024-03-02T22:13:30;5.95;;;2.97;;
45049;SDS011;61798;48.048;-1.928;2024-03-02T22:15:49;7.60;;;3.15;;
45049;SDS011;61798;48.048;-1.928;2024-03-02T22:18:14;4.57;;;2.65;;
45049;SDS011;61798;48.048;-1.928;2024-03-02T22:20:43;7.35;;;2.10;;
45049;SDS011;61798;48.048;-1.928;2024-03-02T22:23:04;3.53;;;2.13;;
45049;SDS011;61798;48.048;-1.928;2024-03-02T22:25:16;3.20;;;1.95;;
45049;SDS011;61798;48.048;-1.928;2024-03-02T22:27:36;8.18;;;2.75;;
45049;SDS011;61798;48.048;-1.928;2024-03-02T22:29:49;3.28;;;2.00;;
45049;SDS011;61798;48.048;-1.928;2024-03-02T22:32:09;2.85;;;1.88;;
45049;SDS011;61798;48.048;-1.928;2024-03-02T22:34:27;4.15;;;1.58;;
45049;SDS011;61798;48.048;-1.928;2024-03-02T22:36:40;3.80;;;1.88;;
45049;SDS011;61798;48.048;-1.928;2024-03-02T22:38:57;3.58;;;1.80;;
45049;SDS011;61798;48.048;-1.928;2024-03-02T22:41:04;2.72;;;1.77;;
45049;SDS011;61798;48.048;-1.928;2024-03-02T22:43:18;3.92;;;2.40;;
45049;SDS011;61798;48.048;-1.928;2024-03-02T22:45:32;9.93;;;2.78;;
45049;SDS011;61798;48.048;-1.928;2024-03-02T22:47:48;4.40;;;2.20;;
45049;SDS011;61798;48.048;-1.928;2024-03-02T22:50:08;3.72;;;1.42;;
45049;SDS011;61798;48.048;-1.928;2024-03-02T22:52:25;4.68;;;1.90;;
45049;SDS011;61798;48.048;-1.928;2024-03-02T22:54:47;4.65;;;1.63;;
45049;SDS011;61798;48.048;-1.928;2024-03-02T22:57:05;3.10;;;1.58;;
45049;SDS011;61798;48.048;-1.928;2024-03-02T22:59:19;3.35;;;1.73;;
45049;SDS011;61798;48.048;-1.928;2024-03-02T23:01:48;3.17;;;1.75;;
45049;SDS011;61798;48.048;-1.928;2024-03-02T23:03:56;4.20;;;1.70;;
45049;SDS011;61798;48.048;-1.928;2024-03-02T23:06:03;3.38;;;2.10;;
45049;SDS011;61798;48.048;-1.928;2024-03-02T23:08:13;6.03;;;2.58;;
45049;SDS011;61798;48.048;-1.928;2024-03-02T23:10:23;4.55;;;2.58;;
45049;SDS011;61798;48.048;-1.928;2024-03-02T23:12:32;3.90;;;2.28;;
45049;SDS011;61798;48.048;-1.928;2024-03-02T23:14:42;4.35;;;2.53;;
45049;SDS011;61798;48.048;-1.928;2024-03-02T23:16:52;4.45;;;2.20;;
45049;SDS011;61798;48.048;-1.928;2024-03-02T23:19:00;3.00;;;1.90;;
45049;SDS011;61798;48.048;-1.928;2024-03-02T23:21:14;5.45;;;1.83;;
45049;SDS011;61798;48.048;-1.928;2024-03-02T23:23:27;5.57;;;2.03;;
45049;SDS011;61798;48.048;-1.928;2024-03-02T23:25:36;3.78;;;2.17;;
45049;SDS011;61798;48.048;-1.928;2024-03-02T23:27:48;6.43;;;2.53;;
45049;SDS011;61798;48.048;-1.928;2024-03-02T23:29:59;5.60;;;3.85;;
45049;SDS011;61798;48.048;-1.928;2024-03-02T23:32:13;6.28;;;3.10;;
45049;SDS011;61798;48.048;-1.928;2024-03-02T23:34:29;5.13;;;2.90;;
45049;SDS011;61798;48.048;-1.928;2024-03-02T23:36:39;5.13;;;2.55;;
45049;SDS011;61798;48.048;-1.928;2024-03-02T23:39:00;4.13;;;2.08;;
45049;SDS011;61798;48.048;-1.928;2024-03-02T23:41:15;3.97;;;1.98;;
45049;SDS011;61798;48.048;-1.928;2024-03-02T23:43:34;5.60;;;2.38;;
45049;SDS011;61798;48.048;-1.928;2024-03-02T23:45:50;4.70;;;2.08;;
45049;SDS011;61798;48.048;-1.928;2024-03-02T23:48:20;2.92;;;1.80;;
45049;SDS011;61798;48.048;-1.928;2024-03-02T23:50:30;7.50;;;1.80;;
45049;SDS011;61798;48.048;-1.928;2024-03-02T23:52:40;6.15;;;3.10;;
45049;SDS011;61798;48.048;-1.928;2024-03-02T23:54:50;4.93;;;2.45;;
45049;SDS011;61798;48.048;-1.928;2024-03-02T23:57:00;5.20;;;2.45;;
45049;SDS011;61798;48.048;-1.928;2024-03-02T23:59:14;5.18;;;1.70;;
